Portada
METAR-TAF:

METAR-TAF

Aeroports :

Gloucester, Anglaterra

latitud: 51-54N, longitud: 002-10W, altitud: 29 m

Observació

L'informe es va fer fa 1 hora i 32 minuts, a les 18:20 UTC
Vent 4 kt del Sud
Temperatura 26°C
Humitat 45%
Pressió 1016 hPa
Visibilitat 10 km o més
sense núvols per sota de 1500 mi sense presència de cumulonimbus.

METAR: EGBJ 241820Z 17004KT CAVOK 26/13 Q1016

Hora: 20:52 (19:52 UTC)

Pronòstic

L'informe es va fer fa 5 hores i 50 minuts, a les 14:02 UTC
Pronòstic vàlid del 24 a les 15 UTC al 24 a les 19 UTC
Vent 8 kt del Sud/Sud-Est
Visibilitat 10 km o més
Escasses núvols a una alçada de 4500 ft

TAF: EGBJ 241402Z 2415/2419 16008KT 9999 FEW045

Observacions i pronòstics meteorològics de més de 4000 aeroports (METAR i TAF).

Les estacions disponibles són els punts grocs i vermells al mapa.

Posi el ratolí al punt desitjat per veure el nom de l'estació.

Feu clic per veure les observacions i els pronòstics meteorològics.

Per canviar el mapa: feu clic els botons verds amb una creu de color negre per apropar; al botó verd amb un guió per allunyar la imatge; o en les fletxes verdes per a mapes adjacents.


METAR-TAF: